createdAt,value
2018-11-04T00:00:20.123Z,13.00
2018-11-04T00:00:56.828Z,12.27
2018-11-04T00:01:31.255Z,13.27
2018-11-04T00:02:06.004Z,13.57
2018-11-04T00:02:40.432Z,14.13
2018-11-04T00:03:14.919Z,13.57
2018-11-04T00:03:49.467Z,12.40
2018-11-04T00:04:24.445Z,13.27
2018-11-04T00:04:59.152Z,13.10
2018-11-04T00:05:33.492Z,12.87
2018-11-04T00:06:08.099Z,13.50
2018-11-04T00:06:42.488Z,13.37
2018-11-04T00:07:16.950Z,12.97
2018-11-04T00:07:52.129Z,13.17
2018-11-04T00:08:26.676Z,12.57
2018-11-04T00:09:01.048Z,13.47
2018-11-04T00:09:35.398Z,11.83
2018-11-04T00:10:11.240Z,13.77
2018-11-04T00:10:45.612Z,13.20
2018-11-04T00:11:19.956Z,13.60
2018-11-04T00:11:55.113Z,14.07
2018-11-04T00:12:29.542Z,14.13
2018-11-04T00:13:04.335Z,13.23
2018-11-04T00:13:38.971Z,13.87
2018-11-04T00:14:13.471Z,13.60
2018-11-04T00:14:47.861Z,14.07
2018-11-04T00:15:22.176Z,14.77
2018-11-04T00:15:56.703Z,14.67
2018-11-04T00:16:31.316Z,13.70
2018-11-04T00:17:06.477Z,14.93
2018-11-04T00:17:41.288Z,14.27
2018-11-04T00:18:15.996Z,14.90
2018-11-04T00:18:50.374Z,13.90
2018-11-04T00:19:24.925Z,14.27
2018-11-04T00:19:59.318Z,14.03
2018-11-04T00:20:33.668Z,14.23
2018-11-04T00:21:08.261Z,15.07
2018-11-04T00:21:42.672Z,13.70
2018-11-04T00:22:17.103Z,13.33
2018-11-04T00:22:51.936Z,14.53
2018-11-04T00:23:26.356Z,14.27
2018-11-04T00:24:00.699Z,14.37
2018-11-04T00:24:35.224Z,14.20
2018-11-04T00:25:12.096Z,14.50
2018-11-04T00:25:46.585Z,14.60
2018-11-04T00:26:21.284Z,15.00
2018-11-04T00:26:55.790Z,14.50
2018-11-04T00:27:30.264Z,14.70
2018-11-04T00:28:04.634Z,15.10
2018-11-04T00:28:39.075Z,15.10
2018-11-04T00:29:13.436Z,15.63
2018-11-04T00:29:47.842Z,15.17
2018-11-04T00:30:22.335Z,15.47
2018-11-04T00:30:56.839Z,15.67
2018-11-04T00:31:31.251Z,15.43
2018-11-04T00:32:05.781Z,15.53
2018-11-04T00:32:40.637Z,16.10
2018-11-04T00:33:15.020Z,14.37
2018-11-04T00:33:49.430Z,15.10
2018-11-04T00:34:23.798Z,15.90
2018-11-04T00:34:58.148Z,15.23
2018-11-04T00:35:32.489Z,15.23
2018-11-04T00:36:07.084Z,16.33
2018-11-04T00:36:41.605Z,16.00
2018-11-04T00:37:16.020Z,15.40
2018-11-04T00:37:50.629Z,16.53
2018-11-04T00:38:24.945Z,16.20
2018-11-04T00:38:59.315Z,15.83
2018-11-04T00:39:33.687Z,15.40
2018-11-04T00:40:09.368Z,16.23
2018-11-04T00:40:43.801Z,16.20
2018-11-04T00:41:18.136Z,15.90
2018-11-04T00:41:52.957Z,16.30
2018-11-04T00:42:27.378Z,16.30
2018-11-04T00:43:01.914Z,15.73
2018-11-04T00:43:36.255Z,16.00
2018-11-04T00:44:10.859Z,15.17
2018-11-04T00:44:45.263Z,15.80
2018-11-04T00:45:19.671Z,16.53
2018-11-04T00:45:54.176Z,15.60
2018-11-04T00:46:28.533Z,16.73
2018-11-04T00:47:04.168Z,15.87
2018-11-04T00:47:39.795Z,15.47
2018-11-04T00:48:14.192Z,16.37
2018-11-04T00:48:48.711Z,16.60
2018-11-04T00:49:23.199Z,16.17
2018-11-04T00:49:57.555Z,16.93
2018-11-04T00:50:31.888Z,16.13
2018-11-04T00:51:06.549Z,15.37
2018-11-04T00:51:40.964Z,16.57
2018-11-04T00:52:15.412Z,16.80
2018-11-04T00:52:49.766Z,16.87
2018-11-04T00:53:24.070Z,17.20
2018-11-04T00:53:58.424Z,17.20
2018-11-04T00:54:32.992Z,17.80
2018-11-04T00:55:07.933Z,15.87
2018-11-04T00:55:48.812Z,17.43
2018-11-04T00:56:23.141Z,18.00
2018-11-04T00:56:57.510Z,17.00
2018-11-04T00:57:31.882Z,18.73
2018-11-04T00:58:06.461Z,17.60
2018-11-04T00:58:40.868Z,19.27
2018-11-04T00:59:15.252Z,18.30
2018-11-04T00:59:49.651Z,17.97
2018-11-04T01:00:24.141Z,18.70
2018-11-04T01:00:58.534Z,18.10
2018-11-04T01:01:32.912Z,19.73
2018-11-04T01:02:07.468Z,17.93
2018-11-04T01:02:42.529Z,18.87
2018-11-04T01:03:17.285Z,17.93
2018-11-04T01:03:51.661Z,18.37
2018-11-04T01:04:26.032Z,18.77
2018-11-04T01:05:00.470Z,18.90
2018-11-04T01:05:34.844Z,18.40
2018-11-04T01:06:09.502Z,19.17
2018-11-04T01:06:43.855Z,19.23
2018-11-04T01:07:18.559Z,18.83
2018-11-04T01:07:52.930Z,19.03
2018-11-04T01:08:27.319Z,18.47
2018-11-04T01:09:01.779Z,18.73
2018-11-04T01:09:36.375Z,19.37
2018-11-04T01:10:12.489Z,19.67
2018-11-04T01:10:46.896Z,18.50
2018-11-04T01:11:21.334Z,19.30
2018-11-04T01:11:55.693Z,18.97
2018-11-04T01:12:30.246Z,19.27
2018-11-04T01:13:04.634Z,20.00
2018-11-04T01:13:39.507Z,19.53
2018-11-04T01:14:13.893Z,19.40
2018-11-04T01:14:48.252Z,19.70
2018-11-04T01:15:22.579Z,20.00
2018-11-04T01:15:56.931Z,20.53
2018-11-04T01:16:31.412Z,19.40
2018-11-04T01:17:06.683Z,20.57
2018-11-04T01:17:42.215Z,20.50
2018-11-04T01:18:16.616Z,20.53
2018-11-04T01:18:50.947Z,19.13
2018-11-04T01:19:25.297Z,19.37
2018-11-04T01:19:59.680Z,19.67
2018-11-04T01:20:34.025Z,20.40
2018-11-04T01:21:08.993Z,19.23
2018-11-04T01:21:43.901Z,19.77
2018-11-04T01:22:18.232Z,20.47
2018-11-04T01:22:52.585Z,20.07
2018-11-04T01:23:27.128Z,20.33
2018-11-04T01:24:04.796Z,20.07
2018-11-04T01:24:39.473Z,19.83
2018-11-04T01:25:14.073Z,19.70
2018-11-04T01:25:48.472Z,19.33
2018-11-04T01:26:22.800Z,20.30
2018-11-04T01:26:57.520Z,20.13
2018-11-04T01:27:32.228Z,20.73
2018-11-04T01:28:07.099Z,20.57
2018-11-04T01:28:41.501Z,19.90
2018-11-04T01:29:15.927Z,21.03
2018-11-04T01:29:50.429Z,19.87
2018-11-04T01:30:24.851Z,19.50
2018-11-04T01:30:59.365Z,19.93
2018-11-04T01:31:39.916Z,20.27
2018-11-04T01:32:14.863Z,20.80
2018-11-04T01:32:49.191Z,20.03
2018-11-04T01:33:23.584Z,20.23
2018-11-04T01:33:57.981Z,19.20
2018-11-04T01:34:32.316Z,19.77
2018-11-04T01:35:07.116Z,20.13
2018-11-04T01:35:41.576Z,20.57
2018-11-04T01:36:16.024Z,20.40
2018-11-04T01:36:50.737Z,20.17
2018-11-04T01:37:25.043Z,21.10
2018-11-04T01:37:59.575Z,19.37
2018-11-04T01:38:33.897Z,20.23
2018-11-04T01:39:09.352Z,19.70
2018-11-04T01:39:43.704Z,20.40
2018-11-04T01:40:18.058Z,20.97
2018-11-04T01:40:52.445Z,20.30
2018-11-04T01:41:27.012Z,20.00
2018-11-04T01:42:01.426Z,20.90
2018-11-04T01:42:35.922Z,20.27
2018-11-04T01:43:10.424Z,21.40
2018-11-04T01:43:45.025Z,21.27
2018-11-04T01:44:19.348Z,20.80
2018-11-04T01:44:53.712Z,21.63
2018-11-04T01:45:28.024Z,21.13
2018-11-04T01:46:02.372Z,20.37
2018-11-04T01:46:36.689Z,19.80
2018-11-04T01:47:11.137Z,20.80
2018-11-04T01:47:45.600Z,20.83
2018-11-04T01:48:19.945Z,20.53
2018-11-04T01:48:54.268Z,21.17
2018-11-04T01:49:28.636Z,21.33
2018-11-04T01:50:03.043Z,20.30
2018-11-04T01:50:37.424Z,20.93
2018-11-04T01:51:12.060Z,20.03
2018-11-04T01:51:46.433Z,21.40
2018-11-04T01:52:20.768Z,20.27
2018-11-04T01:52:55.067Z,21.60
2018-11-04T01:53:29.468Z,22.37
2018-11-04T01:54:03.867Z,21.77
2018-11-04T01:54:38.400Z,20.27
2018-11-04T01:55:13.399Z,20.90
2018-11-04T01:55:47.813Z,21.50
2018-11-04T01:56:22.148Z,21.10
2018-11-04T01:56:56.452Z,19.93
2018-11-04T01:57:30.937Z,20.93
2018-11-04T01:58:06.169Z,20.57
2018-11-04T01:58:40.549Z,20.80
2018-11-04T01:59:14.922Z,20.33
2018-11-04T01:59:49.305Z,21.60
2018-11-04T02:00:23.680Z,20.63
2018-11-04T02:00:58.011Z,21.67
2018-11-04T02:01:32.326Z,21.13
2018-11-04T02:02:06.706Z,21.07
2018-11-04T02:02:41.605Z,21.43
2018-11-04T02:03:16.005Z,20.57
2018-11-04T02:03:50.684Z,20.27
2018-11-04T02:04:25.029Z,21.13
2018-11-04T02:04:59.368Z,21.30
2018-11-04T02:05:33.720Z,20.20
2018-11-04T02:06:08.070Z,20.33
2018-11-04T02:06:42.503Z,21.23
2018-11-04T02:07:16.976Z,22.17
2018-11-04T02:07:51.304Z,22.37
2018-11-04T02:08:25.616Z,21.33
2018-11-04T02:08:59.963Z,21.00
2018-11-04T02:09:34.310Z,20.97
2018-11-04T02:10:10.933Z,20.87
2018-11-04T02:10:45.365Z,21.57
2018-11-04T02:11:19.721Z,22.33
2018-11-04T02:11:54.059Z,21.37
2018-11-04T02:12:28.612Z,21.90
2018-11-04T02:13:02.976Z,21.57
2018-11-04T02:13:37.384Z,20.97
2018-11-04T02:14:11.798Z,20.97
2018-11-04T02:14:46.236Z,20.90
2018-11-04T02:15:20.597Z,21.30
2018-11-04T02:15:54.908Z,22.27
2018-11-04T02:16:29.259Z,21.20
2018-11-04T02:17:03.629Z,21.57
2018-11-04T02:17:38.223Z,22.23
2018-11-04T02:18:12.715Z,21.93
2018-11-04T02:18:47.083Z,21.90
2018-11-04T02:19:21.377Z,22.13
2018-11-04T02:19:55.752Z,21.17
2018-11-04T02:20:30.169Z,21.17
2018-11-04T02:21:04.500Z,22.63
2018-11-04T02:21:38.969Z,20.93
2018-11-04T02:22:13.378Z,21.53
2018-11-04T02:22:47.809Z,21.57
2018-11-04T02:23:22.116Z,22.43
2018-11-04T02:23:56.427Z,22.47
2018-11-04T02:24:31.238Z,21.73
2018-11-04T02:25:06.572Z,22.53
2018-11-04T02:25:40.978Z,21.63
2018-11-04T02:26:15.556Z,22.03
2018-11-04T02:26:50.026Z,21.97
2018-11-04T02:27:24.344Z,22.13
2018-11-04T02:27:58.687Z,22.00
2018-11-04T02:28:33.145Z,22.43
2018-11-04T02:29:07.491Z,22.27
2018-11-04T02:29:42.035Z,21.13
2018-11-04T02:30:17.386Z,23.20
2018-11-04T02:30:51.835Z,22.07
2018-11-04T02:31:26.380Z,21.20
2018-11-04T02:32:00.700Z,20.97
2018-11-04T02:32:35.042Z,22.27
2018-11-04T02:33:09.426Z,22.37
2018-11-04T02:33:43.920Z,21.53
2018-11-04T02:34:18.291Z,22.73
2018-11-04T02:34:52.884Z,22.63
2018-11-04T02:35:27.242Z,22.47
2018-11-04T02:36:01.592Z,23.37
2018-11-04T02:36:35.946Z,22.70
2018-11-04T02:37:10.420Z,22.93
2018-11-04T02:37:45.019Z,22.30
2018-11-04T02:38:19.396Z,22.20
2018-11-04T02:38:53.761Z,23.17
2018-11-04T02:39:28.077Z,22.50
2018-11-04T02:40:02.432Z,21.63
2018-11-04T02:40:37.448Z,22.57
2018-11-04T02:41:11.942Z,24.30
2018-11-04T02:41:46.430Z,23.33
2018-11-04T02:42:20.877Z,23.20
2018-11-04T02:42:55.244Z,23.57
2018-11-04T02:43:29.599Z,23.80
2018-11-04T02:44:03.982Z,22.83
2018-11-04T02:44:38.380Z,23.67
2018-11-04T02:45:13.020Z,23.77
2018-11-04T02:45:47.445Z,23.93
2018-11-04T02:46:21.785Z,23.40
2018-11-04T02:46:56.162Z,25.13
2018-11-04T02:47:30.685Z,23.17
2018-11-04T02:48:05.181Z,22.57
2018-11-04T02:48:39.600Z,23.50
2018-11-04T02:49:14.051Z,23.40
2018-11-04T02:49:48.387Z,23.93
2018-11-04T02:50:22.738Z,23.60
2018-11-04T02:50:57.125Z,24.40
2018-11-04T02:51:32.083Z,22.80
2018-11-04T02:52:06.585Z,23.83
2018-11-04T02:52:41.285Z,23.20
2018-11-04T02:53:15.744Z,24.20
2018-11-04T02:53:50.062Z,23.67
2018-11-04T02:54:24.370Z,24.43
2018-11-04T02:54:58.720Z,23.87
2018-11-04T02:55:33.234Z,23.70
2018-11-04T02:56:07.994Z,24.60
2018-11-04T02:56:42.484Z,24.77
2018-11-04T02:57:16.945Z,24.07
2018-11-04T02:57:51.413Z,24.90
2018-11-04T02:58:25.779Z,24.87
2018-11-04T02:59:00.178Z,24.63
2018-11-04T02:59:34.536Z,24.30
2018-11-04T03:00:11.276Z,26.20
2018-11-04T03:00:45.669Z,24.40
2018-11-04T03:01:19.989Z,24.90
2018-11-04T03:01:54.381Z,24.30
2018-11-04T03:02:28.873Z,25.03
2018-11-04T03:03:03.285Z,24.80
2018-11-04T03:03:37.721Z,24.27
2018-11-04T03:04:12.236Z,24.67
2018-11-04T03:04:46.660Z,26.60
2018-11-04T03:05:21.004Z,26.23
2018-11-04T03:05:55.364Z,26.07
2018-11-04T03:06:29.706Z,24.87
2018-11-04T03:07:04.158Z,25.53
2018-11-04T03:07:38.754Z,24.13
2018-11-04T03:08:13.109Z,26.70
2018-11-04T03:08:47.576Z,25.87
2018-11-04T03:09:22.053Z,26.63
2018-11-04T03:09:56.391Z,26.60
2018-11-04T03:10:30.761Z,27.07
2018-11-04T03:11:05.507Z,26.00
2018-11-04T03:11:40.118Z,26.52
2018-11-04T03:12:14.478Z,26.23
2018-11-04T03:12:49.000Z,26.43
2018-11-04T03:13:23.391Z,26.07
2018-11-04T03:13:57.789Z,25.90
2018-11-04T03:14:32.672Z,25.50
2018-11-04T03:15:07.656Z,26.67
2018-11-04T03:15:42.191Z,25.27
2018-11-04T03:16:16.568Z,26.10
2018-11-04T03:16:51.002Z,25.47
2018-11-04T03:17:25.705Z,26.20
2018-11-04T03:18:00.099Z,27.47
2018-11-04T03:18:34.464Z,26.93
2018-11-04T03:19:09.191Z,26.33
2018-11-04T03:19:43.668Z,26.67
2018-11-04T03:20:18.065Z,27.67
2018-11-04T03:20:52.549Z,27.37
2018-11-04T03:21:27.048Z,25.93
2018-11-04T03:22:01.469Z,26.23
2018-11-04T03:22:35.897Z,27.27
2018-11-04T03:23:10.559Z,26.53
2018-11-04T03:23:45.032Z,27.47
2018-11-04T03:24:19.404Z,27.13
2018-11-04T03:24:53.807Z,27.30
2018-11-04T03:25:28.148Z,27.87
2018-11-04T03:26:03.130Z,25.10
2018-11-04T03:26:37.599Z,27.30
2018-11-04T03:27:12.042Z,28.30
2018-11-04T03:27:46.608Z,26.37
2018-11-04T03:28:21.381Z,26.23
2018-11-04T03:28:55.940Z,26.10
2018-11-04T03:29:30.320Z,27.20
2018-11-04T03:30:05.274Z,27.20
2018-11-04T03:30:40.107Z,27.43
2018-11-04T03:31:14.501Z,26.90
2018-11-04T03:31:49.019Z,27.80
2018-11-04T03:32:23.351Z,27.13
2018-11-04T03:32:57.699Z,26.60
2018-11-04T03:33:32.034Z,26.43
2018-11-04T03:34:06.396Z,26.03
2018-11-04T03:34:41.001Z,26.33
2018-11-04T03:35:15.401Z,26.57
2018-11-04T03:35:49.784Z,27.57
2018-11-04T03:36:24.200Z,27.97
2018-11-04T03:36:58.540Z,27.67
2018-11-04T03:37:32.987Z,26.03
2018-11-04T03:38:07.973Z,27.83
2018-11-04T03:38:42.435Z,26.73
2018-11-04T03:39:17.400Z,27.70
2018-11-04T03:39:51.775Z,28.17
2018-11-04T03:40:26.117Z,27.97
2018-11-04T03:41:00.483Z,28.00
2018-11-04T03:41:34.814Z,27.07
2018-11-04T03:42:09.619Z,27.60
2018-11-04T03:42:44.729Z,27.85
2018-11-04T03:43:25.481Z,27.00
2018-11-04T03:43:59.840Z,26.53
2018-11-04T03:44:34.224Z,27.13
2018-11-04T03:45:09.369Z,27.33
2018-11-04T03:45:43.895Z,28.07
2018-11-04T03:46:18.278Z,28.03
2018-11-04T03:46:52.668Z,27.90
2018-11-04T03:47:27.371Z,27.80
2018-11-04T03:48:02.147Z,28.03
2018-11-04T03:48:36.652Z,27.70
2018-11-04T03:49:11.036Z,27.87
2018-11-04T03:49:45.459Z,27.27
2018-11-04T03:50:19.819Z,28.27
2018-11-04T03:50:54.217Z,28.17
2018-11-04T03:51:28.794Z,27.93
2018-11-04T03:52:03.415Z,28.10
2018-11-04T03:52:37.949Z,27.43
2018-11-04T03:53:12.626Z,27.20
2018-11-04T03:53:47.365Z,26.33
2018-11-04T03:54:21.715Z,27.97
2018-11-04T03:54:56.056Z,28.77
2018-11-04T03:55:30.405Z,27.37
2018-11-04T03:56:05.453Z,28.27
2018-11-04T03:56:40.050Z,27.93
2018-11-04T03:57:14.521Z,28.87
2018-11-04T03:57:49.069Z,27.63
2018-11-04T03:58:23.419Z,28.43
2018-11-04T03:58:57.929Z,28.20
2018-11-04T03:59:32.283Z,28.47
2018-11-04T04:00:09.915Z,28.90
2018-11-04T04:00:44.464Z,28.27
2018-11-04T04:01:18.853Z,27.67
2018-11-04T04:01:53.309Z,28.00
2018-11-04T04:02:27.659Z,29.70
2018-11-04T04:03:02.052Z,29.10
2018-11-04T04:03:36.414Z,28.30
2018-11-04T04:04:10.891Z,27.87
2018-11-04T04:04:45.327Z,28.47
2018-11-04T04:05:19.694Z,28.93
2018-11-04T04:05:54.126Z,29.37
2018-11-04T04:06:28.466Z,28.13
2018-11-04T04:07:03.111Z,29.83
2018-11-04T04:07:37.568Z,28.67
2018-11-04T04:08:11.992Z,29.70
2018-11-04T04:08:46.417Z,29.47
2018-11-04T04:09:20.764Z,27.80
2018-11-04T04:09:55.140Z,28.73
2018-11-04T04:10:29.497Z,29.00
2018-11-04T04:11:03.904Z,26.63
2018-11-04T04:11:38.355Z,28.83
2018-11-04T04:12:12.824Z,29.40
2018-11-04T04:12:47.544Z,27.70
2018-11-04T04:13:22.044Z,28.97
2018-11-04T04:13:56.420Z,29.43
2018-11-04T04:14:30.757Z,27.50
2018-11-04T04:15:06.288Z,29.07
2018-11-04T04:15:40.673Z,27.80
2018-11-04T04:16:15.163Z,28.70
2018-11-04T04:16:49.494Z,28.27
2018-11-04T04:17:23.852Z,29.87
2018-11-04T04:17:58.249Z,28.33
2018-11-04T04:18:32.756Z,28.97
2018-11-04T04:19:07.197Z,29.00
2018-11-04T04:19:41.713Z,29.20
2018-11-04T04:20:16.119Z,29.03
2018-11-04T04:20:54.653Z,28.60
2018-11-04T04:21:29.053Z,27.30
2018-11-04T04:22:03.849Z,28.27
2018-11-04T04:22:38.253Z,28.77
2018-11-04T04:23:12.670Z,28.53
2018-11-04T04:23:47.072Z,28.97
2018-11-04T04:24:21.431Z,30.10
2018-11-04T04:24:55.773Z,30.87
2018-11-04T04:25:30.124Z,30.17
2018-11-04T04:26:04.529Z,29.83
2018-11-04T04:26:38.908Z,29.23
2018-11-04T04:27:13.780Z,29.70
2018-11-04T04:27:48.200Z,28.90
2018-11-04T04:28:22.745Z,30.30
2018-11-04T04:28:57.092Z,29.53
2018-11-04T04:29:31.438Z,29.20
2018-11-04T04:30:08.287Z,28.93
2018-11-04T04:30:42.648Z,29.10
2018-11-04T04:31:17.085Z,29.17
2018-11-04T04:31:51.464Z,29.07
2018-11-04T04:32:25.836Z,29.03
2018-11-04T04:33:00.139Z,29.87
2018-11-04T04:33:34.500Z,30.20
2018-11-04T04:34:08.908Z,29.03
2018-11-04T04:34:43.272Z,28.83
2018-11-04T04:35:17.900Z,28.87
2018-11-04T04:35:52.277Z,29.13
2018-11-04T04:36:26.630Z,30.23
2018-11-04T04:37:00.984Z,29.17
2018-11-04T04:37:35.338Z,29.77
2018-11-04T04:38:10.124Z,28.60
2018-11-04T04:38:44.676Z,29.17
2018-11-04T04:39:19.144Z,28.37
2018-11-04T04:39:53.530Z,28.87
2018-11-04T04:40:27.875Z,29.97
2018-11-04T04:41:02.248Z,31.00
2018-11-04T04:41:36.694Z,30.83
2018-11-04T04:42:11.091Z,29.13
2018-11-04T04:42:45.467Z,29.37
2018-11-04T04:43:19.803Z,29.60
2018-11-04T04:43:54.145Z,30.83
2018-11-04T04:44:28.478Z,30.27
2018-11-04T04:45:02.817Z,30.13
2018-11-04T04:45:37.215Z,31.60
2018-11-04T04:46:11.704Z,30.67
2018-11-04T04:46:46.067Z,30.47
2018-11-04T04:47:20.423Z,30.13
2018-11-04T04:47:54.917Z,29.37
2018-11-04T04:48:29.266Z,31.23
2018-11-04T04:49:03.619Z,29.93
2018-11-04T04:49:38.048Z,30.83
2018-11-04T04:50:12.619Z,29.80
2018-11-04T04:50:47.224Z,30.33
2018-11-04T04:51:21.388Z,29.80
2018-11-04T04:51:55.774Z,30.13
2018-11-04T04:52:30.128Z,30.07
2018-11-04T04:53:05.570Z,28.67
2018-11-04T04:53:40.084Z,29.57
2018-11-04T04:54:14.524Z,30.57
2018-11-04T04:54:48.875Z,29.73
2018-11-04T04:55:23.240Z,30.13
2018-11-04T04:55:58.105Z,31.03
2018-11-04T04:56:32.480Z,29.93
2018-11-04T04:57:06.872Z,30.03
2018-11-04T04:57:41.375Z,30.30
2018-11-04T04:58:15.771Z,29.60
2018-11-04T04:58:50.146Z,30.20
2018-11-04T04:59:24.636Z,30.37
2018-11-04T04:59:59.076Z,30.00
2018-11-04T05:00:33.606Z,29.00
2018-11-04T05:01:08.024Z,31.87
2018-11-04T05:01:42.530Z,30.23
2018-11-04T05:02:16.884Z,30.67
2018-11-04T05:02:51.245Z,29.67
2018-11-04T05:03:25.571Z,30.57
2018-11-04T05:03:59.931Z,31.07
2018-11-04T05:04:34.281Z,29.17
2018-11-04T05:05:08.662Z,29.33
2018-11-04T05:05:43.052Z,29.80
2018-11-04T05:06:17.399Z,29.80
2018-11-04T05:06:51.775Z,30.47
2018-11-04T05:07:26.112Z,29.70
2018-11-04T05:08:00.449Z,30.23
2018-11-04T05:08:34.771Z,31.17
2018-11-04T05:09:09.369Z,30.37
2018-11-04T05:09:43.614Z,29.83
2018-11-04T05:10:17.975Z,30.57
2018-11-04T05:10:52.345Z,29.20
2018-11-04T05:11:26.695Z,29.33
2018-11-04T05:12:01.084Z,30.77
2018-11-04T05:12:35.420Z,29.90
2018-11-04T05:13:10.177Z,29.40
2018-11-04T05:13:44.624Z,29.47
2018-11-04T05:14:19.034Z,31.03
2018-11-04T05:14:53.516Z,29.83
2018-11-04T05:15:27.842Z,30.00
2018-11-04T05:16:02.180Z,30.90
2018-11-04T05:16:36.795Z,30.33
2018-11-04T05:17:11.341Z,30.73
2018-11-04T05:17:45.775Z,30.03
2018-11-04T05:18:20.118Z,30.47
2018-11-04T05:18:54.440Z,29.97
2018-11-04T05:19:28.909Z,30.27
2018-11-04T05:20:03.299Z,29.50
2018-11-04T05:20:37.742Z,28.93
2018-11-04T05:21:12.160Z,30.07
2018-11-04T05:21:46.843Z,30.80
2018-11-04T05:22:21.163Z,30.60
2018-11-04T05:22:55.529Z,28.43
2018-11-04T05:23:29.863Z,30.37
2018-11-04T05:24:04.683Z,28.90
2018-11-04T05:24:39.089Z,31.17
2018-11-04T05:25:13.627Z,30.50
2018-11-04T05:25:47.973Z,29.60
2018-11-04T05:26:22.371Z,30.90
2018-11-04T05:26:56.713Z,29.10
2018-11-04T05:27:31.068Z,29.30
2018-11-04T05:28:05.863Z,29.53
2018-11-04T05:28:40.256Z,30.27
2018-11-04T05:29:14.624Z,30.37
2018-11-04T05:29:49.155Z,29.10
2018-11-04T05:30:23.536Z,31.17
2018-11-04T05:30:57.934Z,30.57
2018-11-04T05:31:32.244Z,29.70
2018-11-04T05:32:06.948Z,30.07
2018-11-04T05:32:41.297Z,30.97
2018-11-04T05:33:15.675Z,29.25
2018-11-04T05:33:50.016Z,30.30
2018-11-04T05:34:24.919Z,29.90
2018-11-04T05:34:59.231Z,32.10
2018-11-04T05:35:33.572Z,29.90
2018-11-04T05:36:07.971Z,30.50
2018-11-04T05:36:42.396Z,30.07
2018-11-04T05:37:16.858Z,30.72
2018-11-04T05:37:51.187Z,29.87
2018-11-04T05:38:25.636Z,30.10
2018-11-04T05:39:00.747Z,30.80
2018-11-04T05:39:35.679Z,31.23
2018-11-04T05:40:11.043Z,29.40
2018-11-04T05:40:45.552Z,32.47
2018-11-04T05:41:19.888Z,31.60
2018-11-04T05:41:54.816Z,29.80
2018-11-04T05:42:29.145Z,30.27
2018-11-04T05:43:03.576Z,29.87
2018-11-04T05:43:38.127Z,31.27
2018-11-04T05:44:12.844Z,30.93
2018-11-04T05:44:47.286Z,31.60
2018-11-04T05:45:21.646Z,30.13
2018-11-04T05:45:55.976Z,30.40
2018-11-04T05:46:30.282Z,31.43
2018-11-04T05:47:04.652Z,31.93
2018-11-04T05:47:39.224Z,30.10
2018-11-04T05:48:13.692Z,30.73
2018-11-04T05:48:48.592Z,31.02
2018-11-04T05:49:22.996Z,32.03
2018-11-04T05:49:57.880Z,31.83
2018-11-04T05:50:32.323Z,29.80
2018-11-04T05:51:06.727Z,31.10
2018-11-04T05:51:41.213Z,30.90
2018-11-04T05:52:15.749Z,30.90
2018-11-04T05:52:50.104Z,30.37
2018-11-04T05:53:24.425Z,31.57
2018-11-04T05:53:58.735Z,31.23
2018-11-04T05:54:33.254Z,32.80
2018-11-04T05:55:09.008Z,31.87
2018-11-04T05:55:43.401Z,32.27
2018-11-04T05:56:17.767Z,32.10
2018-11-04T05:56:52.128Z,30.67
2018-11-04T05:57:26.494Z,30.37
2018-11-04T05:58:00.826Z,31.30
2018-11-04T05:58:35.152Z,30.83
2018-11-04T05:59:09.605Z,31.87
2018-11-04T05:59:44.049Z,30.13
2018-11-04T06:00:18.428Z,30.93
2018-11-04T06:00:52.951Z,31.13
2018-11-04T06:01:27.376Z,31.53
2018-11-04T06:02:01.735Z,30.13
2018-11-04T06:02:36.094Z,30.80
2018-11-04T06:03:10.531Z,32.10
2018-11-04T06:03:44.996Z,33.40
2018-11-04T06:04:19.311Z,32.83
2018-11-04T06:04:53.665Z,31.27
2018-11-04T06:05:27.987Z,32.30
2018-11-04T06:06:02.366Z,31.00
2018-11-04T06:06:36.726Z,31.30
2018-11-04T06:07:11.208Z,30.70
2018-11-04T06:07:45.556Z,30.73
2018-11-04T06:08:19.900Z,31.30
2018-11-04T06:08:54.243Z,31.50
2018-11-04T06:09:28.572Z,30.87
2018-11-04T06:10:03.109Z,30.53
2018-11-04T06:10:37.469Z,32.17
2018-11-04T06:11:11.849Z,30.63
2018-11-04T06:11:46.792Z,30.10
2018-11-04T06:12:21.161Z,30.90
2018-11-04T06:12:55.500Z,30.90
2018-11-04T06:13:30.211Z,30.87
2018-11-04T06:14:04.587Z,31.20
2018-11-04T06:14:39.030Z,31.60
2018-11-04T06:15:13.412Z,32.77
2018-11-04T06:15:47.803Z,32.07
2018-11-04T06:16:22.328Z,31.47
2018-11-04T06:16:56.706Z,30.97
2018-11-04T06:17:31.090Z,31.43
2018-11-04T06:18:05.866Z,31.43
2018-11-04T06:18:40.678Z,32.17
2018-11-04T06:19:15.316Z,31.90
2018-11-04T06:19:50.008Z,30.67
2018-11-04T06:20:24.530Z,32.27
2018-11-04T06:20:59.193Z,30.87
2018-11-04T06:21:33.543Z,32.47
2018-11-04T06:22:07.932Z,32.47
2018-11-04T06:22:43.554Z,31.00
2018-11-04T06:23:17.958Z,31.63
2018-11-04T06:23:52.457Z,32.90
2018-11-04T06:24:27.385Z,31.20
2018-11-04T06:25:01.831Z,32.47
2018-11-04T06:25:36.202Z,31.53
2018-11-04T06:26:10.887Z,31.77
2018-11-04T06:26:45.282Z,33.17
2018-11-04T06:27:20.450Z,31.85
2018-11-04T06:27:55.391Z,30.88
2018-11-04T06:28:29.972Z,31.97
2018-11-04T06:29:04.788Z,32.40
2018-11-04T06:29:39.297Z,31.17
2018-11-04T06:30:14.180Z,32.57
2018-11-04T06:30:48.531Z,32.57
2018-11-04T06:31:22.922Z,31.13
2018-11-04T06:31:57.246Z,32.33
2018-11-04T06:32:31.603Z,30.00
2018-11-04T06:33:06.132Z,31.53
2018-11-04T06:33:41.812Z,30.40
2018-11-04T06:34:16.415Z,30.57
2018-11-04T06:34:50.842Z,31.60
2018-11-04T06:35:25.228Z,31.27
2018-11-04T06:35:59.604Z,32.77
2018-11-04T06:36:34.016Z,32.83
2018-11-04T06:37:08.670Z,31.20
2018-11-04T06:37:43.348Z,32.83
2018-11-04T06:38:17.737Z,32.10
2018-11-04T06:38:52.122Z,31.83
2018-11-04T06:39:26.473Z,31.20
2018-11-04T06:40:00.841Z,32.43
2018-11-04T06:40:35.169Z,32.23
2018-11-04T06:41:09.711Z,32.23
2018-11-04T06:41:44.335Z,33.00
2018-11-04T06:42:19.084Z,31.63
2018-11-04T06:42:53.408Z,32.73
2018-11-04T06:43:27.750Z,33.00
2018-11-04T06:44:02.077Z,31.30
2018-11-04T06:44:36.460Z,33.57
2018-11-04T06:45:11.276Z,33.43
2018-11-04T06:45:45.683Z,32.70
2018-11-04T06:46:20.251Z,31.50
2018-11-04T06:46:54.757Z,33.10
2018-11-04T06:47:29.314Z,32.10
2018-11-04T06:48:03.852Z,32.50
2018-11-04T06:48:38.268Z,32.00
2018-11-04T06:49:12.630Z,32.30
2018-11-04T06:49:47.075Z,31.57
2018-11-04T06:50:22.127Z,33.23
2018-11-04T06:50:56.448Z,31.97
2018-11-04T06:51:30.779Z,32.30
2018-11-04T06:52:05.827Z,31.07
2018-11-04T06:52:40.261Z,32.83
2018-11-04T06:53:14.703Z,32.37
2018-11-04T06:53:49.082Z,30.93
2018-11-04T06:54:24.013Z,31.68
2018-11-04T06:54:58.370Z,31.77
2018-11-04T06:55:32.711Z,33.10
2018-11-04T06:57:10.078Z,31.77
2018-11-04T06:57:44.596Z,29.43
2018-11-04T06:58:19.144Z,30.77
2018-11-04T06:58:53.448Z,31.73
2018-11-04T06:59:34.234Z,30.47
2018-11-04T07:00:10.375Z,32.33
2018-11-04T07:00:44.830Z,30.67
2018-11-04T07:01:19.262Z,30.40
2018-11-04T07:01:53.600Z,32.53
2018-11-04T07:02:28.014Z,31.83
2018-11-04T07:03:02.358Z,31.90
2018-11-04T07:03:36.828Z,31.77
2018-11-04T07:04:22.493Z,30.97
2018-11-04T07:04:56.863Z,31.23
2018-11-04T07:05:31.349Z,31.63
2018-11-04T07:06:05.743Z,30.63
2018-11-04T07:06:40.380Z,32.80
2018-11-04T07:07:14.937Z,32.13
2018-11-04T07:07:49.320Z,31.50
2018-11-04T07:08:23.673Z,32.53
2018-11-04T07:08:58.119Z,32.07
2018-11-04T07:09:32.632Z,31.03
2018-11-04T07:10:08.944Z,29.90
2018-11-04T07:10:43.310Z,31.17
2018-11-04T07:11:17.751Z,31.03
2018-11-04T07:11:52.120Z,31.30
2018-11-04T07:12:26.652Z,31.33
2018-11-04T07:13:01.043Z,31.73
2018-11-04T07:13:35.521Z,31.53
2018-11-04T07:14:09.964Z,32.20
2018-11-04T07:14:44.692Z,31.17
2018-11-04T07:15:25.380Z,31.13
2018-11-04T07:15:59.726Z,31.37
2018-11-04T07:16:34.064Z,31.90
2018-11-04T07:17:08.460Z,31.17
2018-11-04T07:17:42.909Z,31.30
2018-11-04T07:18:17.452Z,32.40
2018-11-04T07:18:51.799Z,33.17
2018-11-04T07:19:26.135Z,32.67
2018-11-04T07:20:00.511Z,32.37
2018-11-04T07:20:35.057Z,32.53
2018-11-04T07:21:09.460Z,31.63
2018-11-04T07:21:44.281Z,32.90
2018-11-04T07:22:18.642Z,31.93
2018-11-04T07:22:53.239Z,33.40
2018-11-04T07:23:27.620Z,32.23
2018-11-04T07:24:02.201Z,32.43
2018-11-04T07:24:36.545Z,32.23
2018-11-04T07:25:10.971Z,31.63
2018-11-04T07:25:45.444Z,33.17
2018-11-04T07:26:19.875Z,30.87